Time;durP1;ratioP1;P1;durP2;ratioP2;P2;SDS_P1;SDS_P2;PMS_P1;PMS_P2;Temp;Humidity;BMP_temperature;BMP_pressure;BME280_temperature;BME280_humidity;BME280_pressure;Samples;Min_cycle;Max_cycle;Signal;HPM_P1;HPM_P2
2022/12/30 00:01:49;;;;;;;17.75;1.90;;;6.50;99.90;;;;;;4993633;28;20038;-80
2022/12/30 00:04:14;;;;;;;7.88;1.95;;;6.40;99.90;;;;;;4988621;28;20117;-80
2022/12/30 00:06:40;;;;;;;9.55;1.60;;;6.30;99.90;;;;;;4988296;28;20041;-80
2022/12/30 00:09:05;;;;;;;7.07;0.95;;;6.40;99.90;;;;;;4974668;28;20072;-80
2022/12/30 00:11:32;;;;;;;17.10;2.13;;;6.50;99.90;;;;;;4988654;28;20030;-80
2022/12/30 00:33:36;;;;;;;10.10;1.30;;;6.50;99.90;;;;;;4986565;28;20429;-80
2022/12/30 00:36:01;;;;;;;12.98;2.10;;;6.60;99.90;;;;;;4988187;28;20066;-80
2022/12/30 00:38:27;;;;;;;8.65;1.38;;;6.50;99.90;;;;;;4980080;28;20046;-80
2022/12/30 00:43:37;;;;;;;6.50;1.90;;;6.50;99.90;;;;;;5001159;28;20079;-80
2022/12/30 00:46:02;;;;;;;5.70;0.85;;;6.40;99.90;;;;;;4987073;28;20041;-81
2022/12/30 00:56:42;;;;;;;10.38;1.90;;;6.40;99.90;;;;;;4987883;28;20030;-80
2022/12/30 00:59:08;;;;;;;5.30;1.40;;;6.50;99.90;;;;;;4992162;28;20038;-80
2022/12/30 01:01:33;;;;;;;7.80;1.60;;;6.50;99.90;;;;;;4994428;28;20038;-80
2022/12/30 01:03:59;;;;;;;7.57;1.92;;;6.50;99.90;;;;;;4991477;28;20038;-80
2022/12/30 01:06:24;;;;;;;14.38;2.15;;;6.40;99.90;;;;;;5001108;28;20038;-80
2022/12/30 01:08:50;;;;;;;7.57;1.90;;;6.40;99.90;;;;;;4990112;28;20030;-80
2022/12/30 01:11:15;;;;;;;14.55;3.08;;;6.40;99.90;;;;;;4984400;28;24578;-80
2022/12/30 01:13:41;;;;;;;3.25;0.75;;;6.40;99.90;;;;;;4975579;28;20104;-80
2022/12/30 01:16:11;;;;;;;6.75;1.33;;;6.50;99.90;;;;;;5002367;28;20077;-80
2022/12/30 01:18:37;;;;;;;10.93;2.28;;;6.40;99.90;;;;;;4988149;28;20468;-80
2022/12/30 01:21:03;;;;;;;4.25;1.58;;;6.50;99.90;;;;;;4987271;28;20173;-80
2022/12/30 01:23:29;;;;;;;13.63;1.75;;;6.50;99.90;;;;;;4986628;28;20037;-80
2022/12/30 01:25:54;;;;;;;9.95;0.90;;;6.40;99.90;;;;;;4971346;28;20034;-80
2022/12/30 01:28:20;;;;;;;5.68;1.20;;;6.40;99.90;;;;;;5005895;28;20073;-80
2022/12/30 01:30:45;;;;;;;5.22;0.93;;;6.40;99.90;;;;;;4985347;28;20026;-81
2022/12/30 01:33:11;;;;;;;6.72;1.33;;;6.40;99.90;;;;;;5003227;28;20493;-81
2022/12/30 01:35:37;;;;;;;16.52;3.70;;;6.40;99.90;;;;;;5006455;28;20363;-80
2022/12/30 01:38:02;;;;;;;9.50;1.02;;;6.40;99.90;;;;;;5000798;28;20042;-80
2022/12/30 01:40:28;;;;;;;4.45;1.55;;;6.40;99.90;;;;;;5007068;28;20030;-80
2022/12/30 01:42:53;;;;;;;13.80;1.67;;;6.30;99.90;;;;;;5005283;28;20046;-80
2022/12/30 01:45:23;;;;;;;12.02;1.50;;;6.30;99.90;;;;;;4989356;28;20045;-80
2022/12/30 01:48:08;;;;;;;5.35;1.17;;;6.30;99.90;;;;;;4987967;28;20037;-80
2022/12/30 01:50:49;;;;;;;14.50;2.08;;;6.30;99.90;;;;;;4975242;28;20069;-80
2022/12/30 01:53:31;;;;;;;21.02;2.45;;;6.20;99.90;;;;;;4989558;28;20037;-81
2022/12/30 01:56:13;;;;;;;3.30;1.67;;;6.20;99.90;;;;;;5006170;28;20083;-80
2022/12/30 01:58:44;;;;;;;8.18;1.15;;;6.30;99.90;;;;;;5002761;28;20041;-80
2022/12/30 02:01:10;;;;;;;1.75;0.20;;;6.20;99.90;;;;;;5007139;28;20072;-80
2022/12/30 02:03:39;;;;;;;5.85;0.98;;;6.30;99.90;;;;;;4982978;28;20061;-81
2022/12/30 02:06:04;;;;;;;10.02;1.40;;;6.30;99.90;;;;;;4990754;28;20030;-80
2022/12/30 02:08:30;;;;;;;11.07;2.28;;;6.20;99.90;;;;;;4978973;28;20525;-80
2022/12/30 02:10:56;;;;;;;7.30;1.02;;;6.10;99.90;;;;;;4989866;28;20064;-81
2022/12/30 02:13:21;;;;;;;13.13;1.63;;;6.20;99.90;;;;;;5000975;28;20030;-80
2022/12/30 02:16:15;;;;;;;11.63;2.63;;;6.20;99.90;;;;;;4982906;28;20027;-80
2022/12/30 02:19:14;;;;;;;5.47;1.05;;;6.20;99.90;;;;;;5007605;28;20026;-81
2022/12/30 02:21:54;;;;;;;3.88;0.98;;;6.20;99.90;;;;;;5007719;28;20109;-80
2022/12/30 02:24:57;;;;;;;11.43;2.17;;;6.20;99.90;;;;;;5003814;28;20493;-80
2022/12/30 02:27:58;;;;;;;3.78;1.02;;;6.20;99.90;;;;;;5003354;28;20853;-80
2022/12/30 02:30:47;;;;;;;8.18;1.27;;;6.10;99.90;;;;;;4985048;28;20026;-80
2022/12/30 02:33:30;;;;;;;6.63;1.58;;;6.10;99.90;;;;;;5001836;28;20038;-81
2022/12/30 02:36:21;;;;;;;6.15;0.93;;;6.10;99.90;;;;;;4989351;28;20033;-80
2022/12/30 02:39:07;;;;;;;8.93;1.33;;;6.10;99.90;;;;;;4988575;28;20387;-81
2022/12/30 02:44:37;;;;;;;6.15;0.85;;;6.10;99.90;;;;;;5001726;28;20402;-80
2022/12/30 02:47:25;;;;;;;7.50;1.40;;;6.10;99.90;;;;;;4971712;28;20042;-80
2022/12/30 02:52:46;;;;;;;9.05;1.45;;;6.10;99.90;;;;;;5004556;28;20037;-80
2022/12/30 02:55:11;;;;;;;7.55;1.00;;;6.10;99.90;;;;;;4973847;28;20054;-80
2022/12/30 02:57:37;;;;;;;11.75;2.50;;;6.10;99.90;;;;;;4985781;28;20022;-80
2022/12/30 03:06:51;;;;;;;4.32;0.95;;;6.10;99.90;;;;;;5006411;28;20725;-81
2022/12/30 03:09:25;;;;;;;9.85;1.15;;;6.00;99.90;;;;;;5004851;28;20516;-81
2022/12/30 03:11:57;;;;;;;8.77;1.30;;;6.00;99.90;;;;;;5007091;28;20401;-80
2022/12/30 03:14:35;;;;;;;8.13;1.27;;;6.00;99.90;;;;;;4998989;28;20358;-80
2022/12/30 03:17:06;;;;;;;14.65;1.63;;;6.00;99.90;;;;;;4989472;28;20026;-80
2022/12/30 03:19:35;;;;;;;7.95;1.40;;;6.00;99.90;;;;;;4972613;28;20041;-80
2022/12/30 03:22:01;;;;;;;13.05;1.23;;;5.90;99.90;;;;;;4989335;28;20030;-80
2022/12/30 03:27:15;;;;;;;15.43;1.92;;;5.90;99.90;;;;;;4991775;28;20504;-80
2022/12/30 03:29:54;;;;;;;10.00;1.67;;;5.90;99.90;;;;;;4988635;28;20041;-81
2022/12/30 03:32:20;;;;;;;8.30;1.55;;;5.90;99.90;;;;;;4989166;28;20436;-81
2022/12/30 03:34:46;;;;;;;15.43;1.85;;;5.80;99.90;;;;;;5001506;28;20045;-80
2022/12/30 03:37:19;;;;;;;12.10;1.60;;;5.80;99.90;;;;;;4988817;28;20521;-80
2022/12/30 03:40:05;;;;;;;7.97;1.35;;;5.80;99.90;;;;;;4989302;28;20084;-80
2022/12/30 03:42:31;;;;;;;12.82;1.60;;;5.80;99.90;;;;;;5001460;28;20030;-80
2022/12/30 03:44:56;;;;;;;3.65;0.80;;;5.70;99.90;;;;;;4986697;28;20041;-80
2022/12/30 03:47:22;;;;;;;8.00;1.63;;;5.40;99.90;;;;;;4989235;28;20520;-80
2022/12/30 03:49:48;;;;;;;15.35;2.38;;;5.70;99.90;;;;;;4981572;28;20038;-80
2022/12/30 03:52:14;;;;;;;9.70;1.60;;;5.70;99.90;;;;;;5001863;28;20026;-81
2022/12/30 03:54:40;;;;;;;8.00;1.30;;;5.70;99.90;;;;;;4974091;28;20045;-81
2022/12/30 03:57:06;;;;;;;6.70;1.17;;;5.60;99.90;;;;;;4982823;28;20034;-80
2022/12/30 03:59:32;;;;;;;13.90;2.58;;;5.70;99.90;;;;;;4986758;28;20079;-81
2022/12/30 04:01:58;;;;;;;14.30;1.73;;;5.70;99.90;;;;;;4993380;28;20037;-80
2022/12/30 04:04:24;;;;;;;6.93;1.20;;;5.70;99.90;;;;;;4988814;28;20030;-81
2022/12/30 04:06:49;;;;;;;7.20;1.75;;;5.70;99.90;;;;;;4988543;28;20042;-81
2022/12/30 04:09:15;;;;;;;12.38;1.40;;;5.70;99.90;;;;;;4985740;28;20095;-81
2022/12/30 04:11:40;;;;;;;16.98;2.33;;;5.60;99.90;;;;;;4988732;28;20103;-81
2022/12/30 04:14:06;;;;;;;15.13;2.15;;;5.60;99.90;;;;;;4983583;28;20046;-81
2022/12/30 04:16:32;;;;;;;10.80;1.77;;;5.60;99.90;;;;;;4980250;28;20026;-81
2022/12/30 04:18:57;;;;;;;10.82;1.67;;;5.60;99.90;;;;;;4986433;28;20030;-80
2022/12/30 04:21:23;;;;;;;14.95;2.10;;;5.60;99.90;;;;;;4987245;28;20045;-81
2022/12/30 04:23:48;;;;;;;14.90;1.83;;;5.50;99.90;;;;;;4978218;28;20018;-81
2022/12/30 04:26:14;;;;;;;12.82;2.15;;;5.50;99.90;;;;;;4992495;28;20037;-80
2022/12/30 04:28:39;;;;;;;14.30;1.83;;;5.40;99.90;;;;;;4989840;28;20088;-81
2022/12/30 04:31:05;;;;;;;10.88;2.03;;;5.30;99.90;;;;;;4978741;28;20022;-80
2022/12/30 04:33:30;;;;;;;6.90;1.70;;;5.30;99.90;;;;;;4988043;28;20034;-81
2022/12/30 04:35:56;;;;;;;8.23;1.77;;;5.30;99.90;;;;;;4978662;28;20406;-81
2022/12/30 04:38:22;;;;;;;14.73;2.00;;;5.30;99.90;;;;;;4992914;28;20116;-81
2022/12/30 04:40:47;;;;;;;15.57;2.70;;;5.70;99.90;;;;;;5006399;28;20044;-81
2022/12/30 04:43:13;;;;;;;10.13;1.52;;;5.20;99.90;;;;;;5003374;28;20030;-81
2022/12/30 04:45:39;;;;;;;12.90;1.52;;;5.20;99.90;;;;;;4992026;28;20049;-80
2022/12/30 04:48:04;;;;;;;5.45;1.25;;;5.20;99.90;;;;;;4975898;28;20544;-81
2022/12/30 04:50:30;;;;;;;7.47;0.93;;;5.30;99.90;;;;;;5003888;28;20091;-81
2022/12/30 04:52:55;;;;;;;6.88;1.13;;;5.20;99.90;;;;;;5007512;28;20120;-80
2022/12/30 04:55:21;;;;;;;8.85;1.20;;;5.30;99.90;;;;;;5007284;28;20030;-81
2022/12/30 04:57:47;;;;;;;11.25;1.38;;;5.30;99.90;;;;;;4992103;28;20026;-81
2022/12/30 05:00:13;;;;;;;12.20;1.55;;;5.30;99.90;;;;;;4987727;28;20040;-80
2022/12/30 05:02:38;;;;;;;12.65;2.03;;;5.30;99.90;;;;;;4988430;28;20041;-81
2022/12/30 05:05:04;;;;;;;8.05;1.38;;;5.20;99.90;;;;;;4989101;28;20033;-81
2022/12/30 05:07:30;;;;;;;5.63;1.25;;;5.20;99.90;;;;;;4982389;28;20025;-81
2022/12/30 05:09:55;;;;;;;6.88;1.35;;;5.20;99.90;;;;;;4989001;28;20038;-81
2022/12/30 05:12:21;;;;;;;12.48;2.10;;;5.20;99.90;;;;;;4991179;28;20026;-81
2022/12/30 05:14:46;;;;;;;11.98;2.08;;;5.20;99.90;;;;;;5003487;28;20052;-81
2022/12/30 05:17:12;;;;;;;11.90;1.52;;;5.20;99.90;;;;;;4991184;28;20022;-81
2022/12/30 05:19:38;;;;;;;17.17;2.05;;;5.10;99.90;;;;;;5002386;28;20037;-81
2022/12/30 05:22:03;;;;;;;10.52;2.53;;;5.10;99.90;;;;;;4987370;28;20033;-80
2022/12/30 05:27:13;;;;;;;16.13;2.35;;;5.10;99.90;;;;;;4992489;28;20516;-81
2022/12/30 05:29:38;;;;;;;14.05;2.10;;;5.00;99.90;;;;;;4991411;28;20022;-81
2022/12/30 05:32:04;;;;;;;12.25;1.73;;;5.00;99.90;;;;;;4990503;28;20034;-81
2022/12/30 05:34:29;;;;;;;14.90;1.75;;;5.10;99.90;;;;;;4990260;28;20029;-81
2022/12/30 05:36:55;;;;;;;12.50;1.90;;;5.00;99.90;;;;;;5004752;28;20501;-81
2022/12/30 05:39:20;;;;;;;10.65;2.50;;;5.00;99.90;;;;;;5002743;28;20072;-81
2022/12/30 05:41:46;;;;;;;8.32;1.77;;;5.00;99.90;;;;;;5000988;28;20038;-81
2022/12/30 05:44:11;;;;;;;12.30;2.35;;;5.10;99.90;;;;;;4985227;28;20062;-81
2022/12/30 05:46:37;;;;;;;16.20;1.70;;;5.10;99.90;;;;;;4976924;28;20122;-81
2022/12/30 05:49:03;;;;;;;12.60;1.65;;;5.10;99.90;;;;;;5003243;28;20056;-82
2022/12/30 05:51:29;;;;;;;11.80;1.85;;;5.10;99.90;;;;;;4991522;28;20030;-81
2022/12/30 05:53:54;;;;;;;13.80;1.80;;;5.00;99.90;;;;;;5007239;28;20084;-81
2022/12/30 05:56:20;;;;;;;10.65;1.60;;;5.00;99.90;;;;;;4997770;28;20083;-81
2022/12/30 05:58:46;;;;;;;11.13;1.83;;;5.00;99.90;;;;;;4987114;28;20026;-81
2022/12/30 06:01:11;;;;;;;8.20;1.58;;;5.10;99.90;;;;;;4987667;28;20026;-81
2022/12/30 06:03:37;;;;;;;9.57;1.60;;;5.10;99.90;;;;;;5004028;28;20398;-81
2022/12/30 06:06:05;;;;;;;7.75;1.33;;;5.10;99.90;;;;;;4987400;28;20043;-81
2022/12/30 06:08:30;;;;;;;10.80;1.40;;;5.00;99.90;;;;;;5002288;28;20037;-81
2022/12/30 06:10:56;;;;;;;4.63;1.05;;;5.00;99.90;;;;;;4989207;28;20045;-82
2022/12/30 06:13:22;;;;;;;7.43;1.75;;;5.00;99.90;;;;;;4981307;28;20088;-81
2022/12/30 06:15:48;;;;;;;10.80;1.23;;;4.90;99.90;;;;;;4991446;28;20030;-81
2022/12/30 06:18:13;;;;;;;9.57;1.83;;;5.00;99.90;;;;;;4986478;28;20030;-81
2022/12/30 06:20:39;;;;;;;8.70;1.75;;;5.00;99.90;;;;;;4999990;28;20082;-81
2022/12/30 06:23:04;;;;;;;7.93;1.65;;;5.00;99.90;;;;;;5003953;28;20606;-82
2022/12/30 06:25:32;;;;;;;3.75;0.95;;;5.00;99.90;;;;;;4988877;28;20584;-81
2022/12/30 06:27:57;;;;;;;9.00;1.52;;;5.20;99.90;;;;;;5002696;28;20045;-81
2022/12/30 06:30:23;;;;;;;8.88;1.60;;;5.20;99.90;;;;;;5005616;28;20494;-81
2022/12/30 06:32:48;;;;;;;3.67;1.38;;;5.00;99.90;;;;;;4984661;28;20584;-81
2022/12/30 06:35:14;;;;;;;5.47;1.20;;;5.00;99.90;;;;;;5004025;28;20026;-81
2022/12/30 06:37:39;;;;;;;3.50;0.82;;;5.10;99.90;;;;;;4987127;28;20042;-80
2022/12/30 06:40:06;;;;;;;9.45;2.00;;;5.10;99.90;;;;;;4985531;28;20069;-81
2022/12/30 06:42:32;;;;;;;7.47;1.40;;;5.10;99.90;;;;;;4983996;28;20433;-81
2022/12/30 06:44:57;;;;;;;9.60;1.77;;;5.10;99.90;;;;;;4989645;28;20022;-81
2022/12/30 06:47:23;;;;;;;7.10;1.33;;;5.10;99.90;;;;;;4990078;28;20046;-82
2022/12/30 06:49:48;;;;;;;10.82;1.50;;;5.10;99.90;;;;;;4990935;28;20070;-82
2022/12/30 06:52:14;;;;;;;6.47;1.08;;;5.10;99.90;;;;;;4990191;28;20430;-82
2022/12/30 06:54:40;;;;;;;7.50;1.63;;;5.10;99.90;;;;;;4975247;28;20102;-82
2022/12/30 06:57:05;;;;;;;7.00;1.08;;;5.10;99.90;;;;;;4989955;28;20109;-82
2022/12/30 06:59:31;;;;;;;10.40;1.83;;;5.10;99.90;;;;;;4979758;28;20439;-82
2022/12/30 07:01:57;;;;;;;7.40;1.50;;;5.10;99.90;;;;;;4980620;28;20027;-81
2022/12/30 07:04:23;;;;;;;10.48;1.60;;;5.00;99.90;;;;;;4985219;28;20456;-81
2022/12/30 07:06:48;;;;;;;11.27;1.73;;;5.30;99.90;;;;;;4975558;28;20038;-82
2022/12/30 07:09:14;;;;;;;6.20;1.38;;;5.00;99.90;;;;;;4982922;28;20052;-82
2022/12/30 07:11:39;;;;;;;9.55;1.00;;;5.00;99.90;;;;;;4986014;28;20061;-81
2022/12/30 07:14:05;;;;;;;8.48;1.23;;;5.00;99.90;;;;;;5007087;28;20040;-82
2022/12/30 07:16:30;;;;;;;7.88;1.48;;;5.10;99.90;;;;;;5003589;28;20114;-82
2022/12/30 07:18:56;;;;;;;14.38;1.60;;;5.10;99.90;;;;;;5002237;28;20033;-82
2022/12/30 07:21:21;;;;;;;6.55;1.40;;;5.10;99.90;;;;;;4989172;28;20064;-82
2022/12/30 07:23:47;;;;;;;9.38;1.20;;;5.00;99.90;;;;;;4986012;28;20080;-81
2022/12/30 07:26:12;;;;;;;7.70;2.22;;;5.00;99.90;;;;;;4976029;28;20088;-82
2022/12/30 07:28:38;;;;;;;9.93;1.10;;;5.00;99.90;;;;;;4989377;28;20528;-82
2022/12/30 07:31:04;;;;;;;5.95;1.63;;;5.10;99.90;;;;;;4972904;28;20117;-83
2022/12/30 07:33:29;;;;;;;9.55;1.50;;;5.10;99.90;;;;;;4998763;28;20046;-81
2022/12/30 07:35:55;;;;;;;15.70;2.42;;;5.10;99.90;;;;;;4986280;28;20030;-82
2022/12/30 07:38:20;;;;;;;9.32;1.63;;;5.10;99.90;;;;;;5002086;28;20076;-82
2022/12/30 07:40:46;;;;;;;9.65;1.55;;;5.10;99.90;;;;;;5000703;28;20092;-82
2022/12/30 07:43:11;;;;;;;8.55;1.60;;;5.10;99.90;;;;;;4984387;28;20069;-82
2022/12/30 07:45:37;;;;;;;5.85;1.17;;;5.10;99.90;;;;;;4980332;28;20033;-82
2022/12/30 07:48:03;;;;;;;4.22;0.90;;;4.90;99.90;;;;;;4982942;28;20033;-82
2022/12/30 07:50:28;;;;;;;5.65;1.45;;;5.10;99.90;;;;;;4972686;28;20482;-82
2022/12/30 07:52:54;;;;;;;7.72;1.08;;;5.20;99.90;;;;;;4983521;28;20099;-82
2022/12/30 07:55:20;;;;;;;6.93;0.95;;;5.30;99.90;;;;;;4987856;28;20146;-82
2022/12/30 07:57:45;;;;;;;8.10;1.05;;;5.30;99.90;;;;;;4997200;28;20535;-82
2022/12/30 08:00:12;;;;;;;6.63;1.42;;;5.30;99.90;;;;;;4986625;28;20034;-82
2022/12/30 08:02:39;;;;;;;7.63;1.27;;;5.40;99.90;;;;;;4981455;28;20033;-82
2022/12/30 08:05:06;;;;;;;8.95;1.10;;;5.40;99.90;;;;;;4984867;28;20033;-83
2022/12/30 08:07:31;;;;;;;5.20;1.40;;;5.40;99.90;;;;;;4974117;28;20030;-82
2022/12/30 08:09:57;;;;;;;11.77;1.33;;;5.50;99.90;;;;;;4981552;28;20491;-82
2022/12/30 08:12:22;;;;;;;3.65;1.08;;;5.50;99.90;;;;;;4998545;28;20061;-83
2022/12/30 08:14:48;;;;;;;11.43;1.60;;;5.50;99.90;;;;;;4972972;28;20038;-82
2022/12/30 08:17:13;;;;;;;5.90;1.42;;;5.60;99.90;;;;;;4973702;28;20033;-82
2022/12/30 08:19:41;;;;;;;5.30;1.15;;;5.60;99.90;;;;;;4966376;28;20124;-82
2022/12/30 08:22:06;;;;;;;5.43;1.15;;;5.60;99.90;;;;;;4988927;28;20030;-82
2022/12/30 08:24:32;;;;;;;4.85;0.80;;;5.70;99.90;;;;;;4974087;28;20041;-82
2022/12/30 08:26:58;;;;;;;3.70;0.82;;;5.70;99.90;;;;;;5002341;28;20070;-82
2022/12/30 08:29:23;;;;;;;5.88;1.13;;;5.80;99.90;;;;;;4987394;28;20109;-82
2022/12/30 08:31:52;;;;;;;6.85;1.50;;;5.80;99.90;;;;;;4995361;28;20030;-82
2022/12/30 08:34:18;;;;;;;8.27;1.27;;;5.90;99.90;;;;;;4984707;28;20058;-80
2022/12/30 08:36:44;;;;;;;13.75;1.02;;;5.90;99.90;;;;;;4998591;28;20289;-80
2022/12/30 08:39:09;;;;;;;5.57;0.90;;;6.00;99.90;;;;;;5000759;28;20038;-81
2022/12/30 08:41:36;;;;;;;4.72;0.73;;;6.00;99.90;;;;;;4994322;28;20054;-81
2022/12/30 08:44:02;;;;;;;7.45;1.02;;;6.00;99.90;;;;;;4982524;28;20038;-80
2022/12/30 08:46:28;;;;;;;4.18;0.80;;;6.20;99.90;;;;;;4972575;28;20036;-81
2022/12/30 08:48:54;;;;;;;3.35;0.88;;;6.40;99.90;;;;;;4995212;28;20037;-81
2022/12/30 08:51:19;;;;;;;4.80;1.33;;;6.20;99.90;;;;;;4994502;28;20038;-80
2022/12/30 08:53:45;;;;;;;2.60;0.52;;;6.30;99.90;;;;;;4982858;28;20387;-82
2022/12/30 08:56:23;;;;;;;9.27;1.08;;;6.30;99.90;;;;;;4973762;28;20034;-81
2022/12/30 08:58:48;;;;;;;6.55;1.05;;;6.40;99.90;;;;;;4992145;28;20097;-80
2022/12/30 09:01:19;;;;;;;7.10;1.10;;;6.40;99.90;;;;;;4976705;28;20046;-81
2022/12/30 09:03:45;;;;;;;4.28;0.70;;;6.50;99.90;;;;;;4980942;28;20031;-80
2022/12/30 09:06:11;;;;;;;7.65;1.00;;;6.50;99.90;;;;;;4971610;28;20036;-81
2022/12/30 09:08:37;;;;;;;4.03;0.77;;;6.60;99.90;;;;;;4995257;28;20030;-80
2022/12/30 09:11:06;;;;;;;1.77;0.50;;;6.60;99.90;;;;;;4991163;28;20376;-80
2022/12/30 09:13:32;;;;;;;3.20;0.38;;;6.70;99.90;;;;;;4989243;28;20045;-80
2022/12/30 09:15:57;;;;;;;8.38;0.80;;;6.70;99.90;;;;;;4973639;28;20038;-80
2022/12/30 09:18:23;;;;;;;3.30;1.15;;;6.70;99.90;;;;;;4995405;28;20030;-81
2022/12/30 09:20:49;;;;;;;1.13;0.45;;;6.80;99.90;;;;;;4990471;28;20183;-80
2022/12/30 09:23:15;;;;;;;4.55;0.55;;;6.80;99.90;;;;;;4977396;28;20462;-80
2022/12/30 09:25:40;;;;;;;5.05;0.95;;;6.90;99.90;;;;;;4978020;28;20524;-80
2022/12/30 09:28:06;;;;;;;7.85;1.20;;;6.90;99.90;;;;;;4985997;28;20083;-80
2022/12/30 09:30:31;;;;;;;4.45;0.90;;;6.90;99.90;;;;;;4998352;28;20107;-81
2022/12/30 09:32:57;;;;;;;5.88;0.80;;;7.00;99.90;;;;;;5001018;28;20064;-80
2022/12/30 09:35:22;;;;;;;7.10;1.20;;;7.10;99.90;;;;;;4984613;28;20077;-80
2022/12/30 09:37:48;;;;;;;2.35;0.65;;;7.20;99.90;;;;;;4990818;28;20026;-81
2022/12/30 09:40:18;;;;;;;2.65;1.00;;;7.20;99.90;;;;;;4972341;28;20108;-80
2022/12/30 09:45:59;;;;;;;3.55;0.80;;;7.40;99.90;;;;;;4983876;28;20644;-81
2022/12/30 09:48:27;;;;;;;9.38;1.20;;;7.30;99.90;;;;;;4996647;28;20113;-81
2022/12/30 09:51:01;;;;;;;5.40;0.65;;;7.40;99.90;;;;;;4986826;28;20057;-81
2022/12/30 09:53:57;;;;;;;2.38;0.55;;;7.40;99.90;;;;;;4965889;28;20038;-80
2022/12/30 09:56:27;;;;;;;6.43;1.02;;;7.50;99.90;;;;;;4984388;28;20030;-80
2022/12/30 09:58:53;;;;;;;7.10;1.05;;;7.50;99.90;;;;;;4985970;28;20107;-81
2022/12/30 10:01:30;;;;;;;5.90;0.60;;;7.50;99.90;;;;;;4978341;28;20034;-81
2022/12/30 10:03:57;;;;;;;2.78;1.00;;;7.60;99.90;;;;;;4995005;28;20036;-80
2022/12/30 10:06:32;;;;;;;5.13;1.08;;;7.50;99.90;;;;;;4987530;28;20592;-81
2022/12/30 10:09:23;;;;;;;10.32;1.10;;;7.60;99.90;;;;;;5001021;28;20053;-80
2022/12/30 10:11:51;;;;;;;3.70;1.15;;;7.70;99.90;;;;;;5017006;28;20486;-80
2022/12/30 10:14:48;;;;;;;4.15;0.70;;;7.80;99.90;;;;;;4995663;28;20367;-80
2022/12/30 10:17:28;;;;;;;1.95;0.73;;;7.80;99.90;;;;;;5004984;28;20049;-80
2022/12/30 10:20:19;;;;;;;6.10;0.80;;;8.00;99.90;;;;;;5017239;28;20041;-80
2022/12/30 10:22:51;;;;;;;5.38;0.57;;;8.10;99.90;;;;;;5004453;28;20498;-80
2022/12/30 10:25:16;;;;;;;3.63;0.70;;;8.20;99.90;;;;;;5003274;28;20092;-80
2022/12/30 10:27:49;;;;;;;6.32;1.15;;;8.20;99.90;;;;;;4997271;28;20482;-80
2022/12/30 10:30:17;;;;;;;2.58;0.60;;;8.30;99.90;;;;;;4965608;28;20113;-80
2022/12/30 10:32:52;;;;;;;2.58;0.70;;;8.50;99.90;;;;;;5002375;28;20459;-80
2022/12/30 10:35:23;;;;;;;5.80;0.77;;;8.50;99.90;;;;;;4970215;28;20115;-80
2022/12/30 10:37:51;;;;;;;5.43;0.90;;;8.60;99.90;;;;;;4988202;28;20041;-80
2022/12/30 10:40:17;;;;;;;5.15;1.00;;;8.70;99.90;;;;;;4981184;28;20072;-80
2022/12/30 10:43:02;;;;;;;1.08;0.50;;;8.70;99.90;;;;;;4986164;28;20504;-80
2022/12/30 10:45:35;;;;;;;6.47;1.00;;;9.00;99.90;;;;;;4981023;28;20370;-80
2022/12/30 10:48:21;;;;;;;6.28;0.60;;;9.00;99.90;;;;;;4985706;28;20042;-80
2022/12/30 10:50:47;;;;;;;2.92;0.75;;;9.20;99.90;;;;;;4994978;28;20037;-80
2022/12/30 10:53:18;;;;;;;4.00;0.80;;;9.30;99.90;;;;;;5002516;28;20037;-80
2022/12/30 10:55:55;;;;;;;6.00;1.65;;;9.20;99.90;;;;;;4998210;28;20042;-81
2022/12/30 10:58:41;;;;;;;7.70;1.25;;;9.40;99.90;;;;;;4999363;28;20034;-80
2022/12/30 11:01:18;;;;;;;2.17;0.75;;;9.30;99.90;;;;;;4985934;28;20033;-80
2022/12/30 11:03:49;;;;;;;3.45;0.68;;;9.30;99.90;;;;;;5002225;28;20038;-80
2022/12/30 11:06:36;;;;;;;1.85;0.63;;;9.40;99.90;;;;;;4999115;28;20030;-80
2022/12/30 11:09:11;;;;;;;3.83;0.77;;;9.40;99.90;;;;;;4984868;28;20054;-80
2022/12/30 11:14:44;;;;;;;1.60;0.65;;;9.50;99.90;;;;;;5007694;28;20053;-80
2022/12/30 11:17:16;;;;;;;2.20;0.52;;;9.40;99.90;;;;;;4983475;28;20046;-80
2022/12/30 11:19:48;;;;;;;4.72;0.77;;;9.40;99.90;;;;;;5000636;28;20045;-81
2022/12/30 11:22:13;;;;;;;1.42;0.50;;;9.30;99.90;;;;;;4978758;28;20038;-80
2022/12/30 11:24:43;;;;;;;1.27;0.52;;;9.40;99.90;;;;;;5001457;28;20088;-80
2022/12/30 11:27:08;;;;;;;7.05;0.82;;;9.30;99.90;;;;;;4986918;28;20052;-81
2022/12/30 11:29:34;;;;;;;4.45;0.85;;;9.30;99.90;;;;;;4999463;28;20378;-80
2022/12/30 11:31:59;;;;;;;4.35;1.00;;;9.30;99.90;;;;;;4971916;28;20034;-81
2022/12/30 11:34:36;;;;;;;1.05;0.38;;;9.10;99.90;;;;;;4996040;28;20046;-81
2022/12/30 11:37:32;;;;;;;1.00;0.40;;;9.20;99.90;;;;;;4980140;28;20030;-80
2022/12/30 11:40:19;;;;;;;2.60;0.75;;;9.20;99.90;;;;;;4984821;28;20593;-80
2022/12/30 11:42:45;;;;;;;1.98;0.63;;;9.10;99.90;;;;;;5000493;28;20044;-80
2022/12/30 11:45:17;;;;;;;3.45;1.20;;;9.10;99.90;;;;;;4985117;28;20034;-80
2022/12/30 11:47:44;;;;;;;2.00;0.77;;;9.10;99.90;;;;;;4985871;28;20037;-80
2022/12/30 11:50:17;;;;;;;8.15;2.05;;;9.10;99.90;;;;;;4976013;28;20034;-80
2022/12/30 11:52:48;;;;;;;4.40;0.68;;;9.10;99.90;;;;;;4983304;28;20044;-80
2022/12/30 11:55:22;;;;;;;3.13;0.80;;;9.10;99.90;;;;;;4986628;28;20440;-81
2022/12/30 11:57:48;;;;;;;5.53;1.33;;;9.10;99.90;;;;;;4980449;28;20101;-80
2022/12/30 12:00:16;;;;;;;2.53;1.10;;;9.10;99.90;;;;;;4967104;28;20433;-80
2022/12/30 12:02:47;;;;;;;2.42;1.20;;;9.00;99.90;;;;;;4899565;28;20085;-80
2022/12/30 12:05:21;;;;;;;6.32;1.05;;;9.00;99.90;;;;;;4901516;28;20042;-81
2022/12/30 12:07:48;;;;;;;4.22;0.93;;;9.00;99.90;;;;;;4994295;28;20030;-81
2022/12/30 12:10:22;;;;;;;7.60;2.03;;;8.90;99.90;;;;;;4961484;28;20042;-81
2022/12/30 12:13:00;;;;;;;3.85;0.88;;;9.00;99.90;;;;;;4999151;28;20446;-81
2022/12/30 12:15:26;;;;;;;3.63;1.00;;;9.00;99.90;;;;;;4984755;28;20481;-80
2022/12/30 12:17:56;;;;;;;4.10;1.10;;;8.90;99.90;;;;;;5003224;28;20038;-81
2022/12/30 12:20:25;;;;;;;5.95;1.10;;;8.90;99.90;;;;;;4986162;28;20125;-80
2022/12/30 12:22:56;;;;;;;5.30;1.73;;;8.90;99.90;;;;;;5018529;28;20066;-81
2022/12/30 12:25:24;;;;;;;4.95;0.85;;;8.40;99.90;;;;;;5002408;28;20495;-81
2022/12/30 12:27:50;;;;;;;2.30;0.80;;;8.90;99.90;;;;;;4997814;28;20096;-81
2022/12/30 12:30:16;;;;;;;4.88;0.85;;;8.90;99.90;;;;;;4976202;28;20117;-80
2022/12/30 12:32:45;;;;;;;6.80;1.17;;;8.90;99.90;;;;;;4980185;28;20146;-81
2022/12/30 12:35:29;;;;;;;2.45;0.98;;;8.90;99.90;;;;;;4994003;28;20069;-80
2022/12/30 12:38:06;;;;;;;4.28;1.10;;;8.90;99.90;;;;;;5002117;28;20382;-80
2022/12/30 12:41:05;;;;;;;4.72;0.93;;;8.90;99.90;;;;;;5009794;28;20034;-80
2022/12/30 12:43:49;;;;;;;4.20;1.10;;;8.90;99.90;;;;;;4985086;28;20083;-81
2022/12/30 12:46:45;;;;;;;5.86;1.06;;;8.90;99.90;;;;;;4648404;28;10000534;-80
2022/12/30 12:49:35;;;;;;;5.70;0.83;;;8.90;99.90;;;;;;4972513;28;20244;-80
2022/12/30 12:52:07;;;;;;;3.10;0.90;;;8.90;99.90;;;;;;4999152;28;20141;-80
2022/12/30 12:55:07;;;;;;;5.97;1.45;;;8.90;99.90;;;;;;4990328;28;20034;-80
2022/12/30 12:57:53;;;;;;;7.10;1.23;;;8.90;99.90;;;;;;5003536;28;20022;-80
2022/12/30 13:00:20;;;;;;;4.72;1.00;;;8.90;99.90;;;;;;5000346;28;20030;-80
2022/12/30 13:03:04;;;;;;;3.58;1.17;;;9.10;99.90;;;;;;4999805;28;20057;-81
2022/12/30 13:05:45;;;;;;;3.25;1.02;;;8.90;99.90;;;;;;5005657;28;20033;-80
2022/12/30 13:08:18;;;;;;;7.03;0.80;;;9.00;99.90;;;;;;4998820;28;20041;-81
2022/12/30 13:10:50;;;;;;;4.45;0.98;;;9.00;99.90;;;;;;5000169;28;20041;-81
2022/12/30 13:13:39;;;;;;;2.47;0.65;;;9.00;99.90;;;;;;4986478;28;20037;-81
2022/12/30 13:16:11;;;;;;;5.30;0.80;;;9.00;99.90;;;;;;4997640;28;20088;-81
2022/12/30 13:18:38;;;;;;;4.63;0.85;;;9.10;99.90;;;;;;4967799;28;20117;-82
2022/12/30 13:21:05;;;;;;;3.67;0.80;;;9.10;99.90;;;;;;4995043;28;20027;-82
2022/12/30 13:23:33;;;;;;;1.45;0.55;;;9.10;99.90;;;;;;4985757;28;20072;-82
2022/12/30 13:26:00;;;;;;;1.85;0.60;;;9.10;99.90;;;;;;4982955;28;20096;-82
2022/12/30 13:28:27;;;;;;;3.28;1.10;;;9.10;99.90;;;;;;4987969;28;20042;-82
2022/12/30 13:31:06;;;;;;;2.95;0.68;;;9.20;99.90;;;;;;4984617;28;20417;-82
2022/12/30 13:33:42;;;;;;;5.00;0.68;;;9.10;99.90;;;;;;4987857;28;20044;-82
2022/12/30 13:36:20;;;;;;;6.93;0.90;;;9.10;99.90;;;;;;4998884;28;20080;-82
2022/12/30 13:38:50;;;;;;;6.70;1.10;;;9.00;99.90;;;;;;4988418;28;20046;-82
2022/12/30 13:41:37;;;;;;;1.85;0.68;;;8.90;99.90;;;;;;4988312;28;20030;-82
2022/12/30 13:44:03;;;;;;;4.30;1.00;;;8.80;99.90;;;;;;5008065;28;20030;-83
2022/12/30 13:46:33;;;;;;;4.72;0.88;;;8.80;99.90;;;;;;4983855;28;20030;-82
2022/12/30 13:49:22;;;;;;;3.92;0.98;;;8.70;99.90;;;;;;5000331;28;20117;-83
2022/12/30 13:52:02;;;;;;;2.13;0.90;;;8.70;99.90;;;;;;5001576;28;20482;-83
2022/12/30 13:54:28;;;;;;;2.33;1.02;;;8.60;99.90;;;;;;4981987;28;20034;-83
2022/12/30 13:56:54;;;;;;;3.38;0.77;;;8.50;99.90;;;;;;4967121;28;20137;-83
2022/12/30 13:59:37;;;;;;;1.67;0.65;;;8.50;99.90;;;;;;4974107;28;20026;-83
2022/12/30 14:02:18;;;;;;;2.92;0.70;;;8.50;99.90;;;;;;4986993;28;20475;-83
2022/12/30 14:04:47;;;;;;;1.42;0.70;;;8.40;99.90;;;;;;5003423;28;20064;-83